Salisbury, MD

3:31 AM EDT on September 20, 2014 (GMT -0400)
Michael Minner Photo | Change Station
CLOSE
Current Station
Personal Weather Station
Location: Salisbury, MD
Elevation: 36 ft
Nearby Weather Stations

Elev 36 ft 38.37 °N, 75.66 °W | Updated 8 seconds ago

Clear
Clear
56.2 °F
Feels Like 56.2 °F
N
0.0
Wind Variable Wind from NE
Gusts 0.0 mph

Today
High -- | Low -- °F
--% Chance of Precip.
Yesterday
High -- | Low -- °F
Precip. -- in
6:48 AM 7:02 PM
Waning Crescent, 14% visible
Pressure 30.27 in
Visibility 7.0 miles
Clouds Few 2600 ft
Dew Point 56 °F
Humidity 98%
Rainfall 0.00 in
Snow Depth Not available.
UV 16.0 out of 12
Pollen 4.00 out of 12
Air Quality Not available.
Flu Activity Not available.
METAR KSBY 200654Z AUTO 02003KT 7SM FEW026 15/13 A3026 RMK AO2 SLP248 T01500133

More Conditions Fewer Conditions

Pressure 30.27 in
Visibility 7.0 miles
Clouds Few 2600 ft
Dew Point 56 °F
Humidity 98%
Rainfall 0.00 in
Snow Depth Not available.
UV 16.0 out of 12
Pollen 4.00 out of 12
Air Quality Not available.
Flu Activity Not available.
METAR KSBY 200654Z AUTO 02003KT 7SM FEW026 15/13 A3026 RMK AO2 SLP248 T01500133

More Conditions Fewer Conditions

10-Day Weather Forecast

Almanac

Astronomy

Sep. 20, 2014 Rise Set
Actual Time 6:48 AM EDT 7:02 PM EDT
Civil Twilight 6:21 AM EDT 7:28 PM EDT
Nautical Twilight 5:50 AM EDT 7:59 PM EDT
Astronomical Twilight 5:19 AM EDT 8:31 PM EDT
Moon 3:27 AM EDT 5:02 PM EDT
Length of Visible Light 13h 07m
Length of Day
12h 14m
Tomorrow will be 2m 28s shorter.
Waning Crescent, 14% of the Moon is Illuminated
Today
Waning Crescent
Sep 24
New
Oct 1
First Quarter
Oct 8
Full
Oct 15
Last Quarter

Today's Extremes

State Highs State Lows

Community

WunderPhotos

Upload Photos

1,754,792 photos uploaded!

WunderBlogs® & News

Nearby

Snow Depth

Station Depth Elevation
No new snow has been reported.

Earthquake Activity

City Distance Mag. Time & Date
No recent earthquake activity has been reported nearby.
Minimum magnitude displayed is 2.5.

Coastal Water Temperatures

Place Temperature
Bishops Head, MD 72.0 °F
Lewisetta, VA 73.0 °F
Solomons Island, MD 75.0 °F
Cambridge, MD 73.9 °F

Nearby Weather Stations